sensor_id;sensor_type;location;lat;lon;timestamp;pressure;altitude;pressure_sealevel;temperature;humidity
48872;BME280;36154;51.674;7.824;2023-01-16T00:02:20;98986.16;;;19.70;50.35
48872;BME280;36154;51.674;7.824;2023-01-16T00:05:02;98983.47;;;19.72;50.18
48872;BME280;36154;51.674;7.824;2023-01-16T00:07:31;98974.78;;;19.73;50.25
48872;BME280;36154;51.674;7.824;2023-01-16T00:10:04;98968.81;;;19.72;50.27
48872;BME280;36154;51.674;7.824;2023-01-16T00:13:02;98961.13;;;19.71;50.12
48872;BME280;36154;51.674;7.824;2023-01-16T00:15:28;98962.81;;;19.72;50.25
48872;BME280;36154;51.674;7.824;2023-01-16T00:21:06;98958.53;;;19.71;50.19
48872;BME280;36154;51.674;7.824;2023-01-16T00:23:39;98950.78;;;19.71;50.17
48872;BME280;36154;51.674;7.824;2023-01-16T00:26:29;98945.63;;;19.71;50.26
48872;BME280;36154;51.674;7.824;2023-01-16T00:29:12;98949.97;;;19.70;50.27
48872;BME280;36154;51.674;7.824;2023-01-16T00:31:38;98943.03;;;19.71;50.10
48872;BME280;36154;51.674;7.824;2023-01-16T00:34:04;98925.91;;;19.70;50.19
48872;BME280;36154;51.674;7.824;2023-01-16T00:36:31;98928.47;;;19.70;50.15
48872;BME280;36154;51.674;7.824;2023-01-16T00:39:00;98919.78;;;19.71;50.19
48872;BME280;36154;51.674;7.824;2023-01-16T00:41:28;98904.28;;;19.71;50.25
48872;BME280;36154;51.674;7.824;2023-01-16T00:43:54;98899.13;;;19.71;50.26
48872;BME280;36154;51.674;7.824;2023-01-16T00:46:26;98898.31;;;19.70;50.21
48872;BME280;36154;51.674;7.824;2023-01-16T00:48:55;98896.53;;;19.71;50.32
48872;BME280;36154;51.674;7.824;2023-01-16T00:51:22;98887.97;;;19.70;50.11
48872;BME280;36154;51.674;7.824;2023-01-16T00:53:48;98888.78;;;19.71;50.15
48872;BME280;36154;51.674;7.824;2023-01-16T00:56:14;98875.13;;;19.69;50.13
48872;BME280;36154;51.674;7.824;2023-01-16T00:58:40;98888.19;;;19.66;50.34
48872;BME280;36154;51.674;7.824;2023-01-16T01:01:06;98874.22;;;19.70;50.39
48872;BME280;36154;51.674;7.824;2023-01-16T01:03:32;98871.63;;;19.70;50.16
48872;BME280;36154;51.674;7.824;2023-01-16T01:05:58;98866.47;;;19.70;50.24
48872;BME280;36154;51.674;7.824;2023-01-16T01:08:26;98870.78;;;19.69;50.38
48872;BME280;36154;51.674;7.824;2023-01-16T01:10:53;98866.47;;;19.70;50.29
48872;BME280;36154;51.674;7.824;2023-01-16T01:13:30;98855.28;;;19.69;50.23
48872;BME280;36154;51.674;7.824;2023-01-16T01:15:56;98859.63;;;19.69;50.11
48872;BME280;36154;51.674;7.824;2023-01-16T01:18:22;98856.13;;;19.70;50.11
48872;BME280;36154;51.674;7.824;2023-01-16T01:20:48;98845.81;;;19.70;50.13
48872;BME280;36154;51.674;7.824;2023-01-16T01:23:14;98850.97;;;19.70;50.31
48872;BME280;36154;51.674;7.824;2023-01-16T01:25:40;98849.28;;;19.69;50.26
48872;BME280;36154;51.674;7.824;2023-01-16T01:28:06;98845.81;;;19.70;50.27
48872;BME280;36154;51.674;7.824;2023-01-16T01:30:36;98837.19;;;19.69;50.14
48872;BME280;36154;51.674;7.824;2023-01-16T01:33:02;98824.28;;;19.69;50.20
48872;BME280;36154;51.674;7.824;2023-01-16T01:35:35;98831.22;;;19.69;50.30
48872;BME280;36154;51.674;7.824;2023-01-16T01:38:27;98823.47;;;19.69;50.20
48872;BME280;36154;51.674;7.824;2023-01-16T01:41:05;98826.94;;;19.68;50.09
48872;BME280;36154;51.674;7.824;2023-01-16T01:43:54;98823.53;;;19.67;50.24
48872;BME280;36154;51.674;7.824;2023-01-16T01:46:42;98815.78;;;19.67;50.13
48872;BME280;36154;51.674;7.824;2023-01-16T01:52:49;98791.78;;;19.65;50.15
48872;BME280;36154;51.674;7.824;2023-01-16T01:55:47;98795.28;;;19.64;50.33
48872;BME280;36154;51.674;7.824;2023-01-16T01:58:22;98785.81;;;19.65;50.37
48872;BME280;36154;51.674;7.824;2023-01-16T02:00:59;98779.69;;;19.66;50.25
48872;BME280;36154;51.674;7.824;2023-01-16T02:06:59;98766.88;;;19.64;50.24
48872;BME280;36154;51.674;7.824;2023-01-16T02:09:30;98755.72;;;19.64;50.20
48872;BME280;36154;51.674;7.824;2023-01-16T02:12:13;98767.72;;;19.65;50.30
48872;BME280;36154;51.674;7.824;2023-01-16T02:14:47;98757.38;;;19.65;50.38
48872;BME280;36154;51.674;7.824;2023-01-16T02:17:21;98754.03;;;19.63;50.43
48872;BME280;36154;51.674;7.824;2023-01-16T02:20:24;98750.53;;;19.64;50.20
48872;BME280;36154;51.674;7.824;2023-01-16T02:23:31;98742.78;;;19.64;50.25
48872;BME280;36154;51.674;7.824;2023-01-16T02:41:02;98708.44;;;19.62;50.31
48872;BME280;36154;51.674;7.824;2023-01-16T02:43:39;98705.00;;;19.61;50.30
48872;BME280;36154;51.674;7.824;2023-01-16T02:46:17;98704.09;;;19.62;50.26
48872;BME280;36154;51.674;7.824;2023-01-16T02:48:50;98686.94;;;19.61;50.29
48872;BME280;36154;51.674;7.824;2023-01-16T02:51:28;98687.78;;;19.62;50.29
48872;BME280;36154;51.674;7.824;2023-01-16T02:54:05;98681.75;;;19.61;50.27
48872;BME280;36154;51.674;7.824;2023-01-16T02:57:01;98675.78;;;19.61;50.20
48872;BME280;36154;51.674;7.824;2023-01-16T02:59:29;98667.13;;;19.62;50.39
48872;BME280;36154;51.674;7.824;2023-01-16T03:01:56;98665.44;;;19.61;50.17
48872;BME280;36154;51.674;7.824;2023-01-16T03:04:50;98655.94;;;19.61;50.26
48872;BME280;36154;51.674;7.824;2023-01-16T03:10:04;98653.34;;;19.61;50.41
48872;BME280;36154;51.674;7.824;2023-01-16T03:12:39;98649.94;;;19.61;50.34
48872;BME280;36154;51.674;7.824;2023-01-16T03:18:06;98643.94;;;19.60;50.41
48872;BME280;36154;51.674;7.824;2023-01-16T03:20:49;98631.13;;;19.58;50.37
48872;BME280;36154;51.674;7.824;2023-01-16T03:23:39;98631.28;;;19.55;50.37
48872;BME280;36154;51.674;7.824;2023-01-16T03:26:24;98621.78;;;19.56;50.41
48872;BME280;36154;51.674;7.824;2023-01-16T03:32:12;98610.63;;;19.55;50.25
48872;BME280;36154;51.674;7.824;2023-01-16T03:37:18;98615.78;;;19.55;50.18
48872;BME280;36154;51.674;7.824;2023-01-16T03:39:52;98612.31;;;19.56;50.33
48872;BME280;36154;51.674;7.824;2023-01-16T03:42:23;98609.72;;;19.56;50.41
48872;BME280;36154;51.674;7.824;2023-01-16T03:45:00;98605.47;;;19.55;50.10
48872;BME280;36154;51.674;7.824;2023-01-16T03:47:34;98601.97;;;19.56;50.14
48872;BME280;36154;51.674;7.824;2023-01-16T03:50:05;98595.94;;;19.56;50.57
48872;BME280;36154;51.674;7.824;2023-01-16T03:52:38;98601.97;;;19.56;50.07
48872;BME280;36154;51.674;7.824;2023-01-16T03:55:12;98589.16;;;19.55;50.36
48872;BME280;36154;51.674;7.824;2023-01-16T03:57:49;98581.31;;;19.56;50.20
48872;BME280;36154;51.674;7.824;2023-01-16T04:00:18;98580.38;;;19.57;50.32
48872;BME280;36154;51.674;7.824;2023-01-16T04:02:59;98569.31;;;19.55;50.13
48872;BME280;36154;51.674;7.824;2023-01-16T04:05:33;98576.16;;;19.56;50.15
48872;BME280;36154;51.674;7.824;2023-01-16T04:08:04;98563.16;;;19.58;50.27
48872;BME280;36154;51.674;7.824;2023-01-16T04:10:33;98558.81;;;19.58;50.23
48872;BME280;36154;51.674;7.824;2023-01-16T04:13:12;98549.13;;;19.62;50.22
48872;BME280;36154;51.674;7.824;2023-01-16T04:15:43;98534.28;;;19.66;50.09
48872;BME280;36154;51.674;7.824;2023-01-16T04:18:10;98520.28;;;19.70;50.07
48872;BME280;36154;51.674;7.824;2023-01-16T04:20:38;98520.09;;;19.73;50.19
48872;BME280;36154;51.674;7.824;2023-01-16T04:23:05;98511.25;;;19.77;50.17
48872;BME280;36154;51.674;7.824;2023-01-16T04:25:31;98514.47;;;19.81;49.95
48872;BME280;36154;51.674;7.824;2023-01-16T04:27:57;98510.91;;;19.83;50.01
48872;BME280;36154;51.674;7.824;2023-01-16T04:30:23;98505.53;;;19.86;50.08
48872;BME280;36154;51.674;7.824;2023-01-16T04:32:49;98503.50;;;19.91;50.07
48872;BME280;36154;51.674;7.824;2023-01-16T04:35:15;98493.81;;;19.95;49.93
48872;BME280;36154;51.674;7.824;2023-01-16T04:37:40;98490.19;;;19.98;49.91
48872;BME280;36154;51.674;7.824;2023-01-16T04:40:07;98482.28;;;20.01;49.93
48872;BME280;36154;51.674;7.824;2023-01-16T04:42:34;98472.66;;;20.03;49.90
48872;BME280;36154;51.674;7.824;2023-01-16T04:45:01;98469.91;;;20.06;49.80
48872;BME280;36154;51.674;7.824;2023-01-16T04:47:27;98460.19;;;20.09;49.62
48872;BME280;36154;51.674;7.824;2023-01-16T04:49:56;98466.00;;;20.13;49.79
48872;BME280;36154;51.674;7.824;2023-01-16T04:52:22;98452.97;;;20.15;49.70
48872;BME280;36154;51.674;7.824;2023-01-16T04:54:48;98455.47;;;20.16;49.72
48872;BME280;36154;51.674;7.824;2023-01-16T04:57:13;98447.53;;;20.19;49.67
48872;BME280;36154;51.674;7.824;2023-01-16T04:59:39;98434.59;;;20.19;49.71
48872;BME280;36154;51.674;7.824;2023-01-16T05:02:05;98440.31;;;20.24;49.54
48872;BME280;36154;51.674;7.824;2023-01-16T05:04:31;98427.38;;;20.24;49.47
48872;BME280;36154;51.674;7.824;2023-01-16T05:06:57;98422.94;;;20.26;49.49
48872;BME280;36154;51.674;7.824;2023-01-16T05:09:23;98406.50;;;20.27;49.42
48872;BME280;36154;51.674;7.824;2023-01-16T05:11:54;98409.81;;;20.29;49.54
48872;BME280;36154;51.674;7.824;2023-01-16T05:14:20;98404.66;;;20.29;49.47
48872;BME280;36154;51.674;7.824;2023-01-16T05:16:49;98399.47;;;20.29;49.27
48872;BME280;36154;51.674;7.824;2023-01-16T05:19:15;98397.63;;;20.31;49.35
48872;BME280;36154;51.674;7.824;2023-01-16T05:21:44;98390.81;;;20.30;49.23
48872;BME280;36154;51.674;7.824;2023-01-16T05:24:10;98379.66;;;20.30;49.18
48872;BME280;36154;51.674;7.824;2023-01-16T05:26:36;98379.66;;;20.30;49.20
48872;BME280;36154;51.674;7.824;2023-01-16T05:29:02;98375.28;;;20.30;49.21
48872;BME280;36154;51.674;7.824;2023-01-16T05:31:28;98363.28;;;20.29;49.21
48872;BME280;36154;51.674;7.824;2023-01-16T05:33:54;98351.31;;;20.28;49.03
48872;BME280;36154;51.674;7.824;2023-01-16T05:36:20;98349.63;;;20.27;49.13
48872;BME280;36154;51.674;7.824;2023-01-16T05:38:57;98335.03;;;20.26;49.01
48872;BME280;36154;51.674;7.824;2023-01-16T05:41:24;98324.78;;;20.25;49.31
48872;BME280;36154;51.674;7.824;2023-01-16T05:43:51;98332.66;;;20.23;49.21
48872;BME280;36154;51.674;7.824;2023-01-16T05:46:18;98311.44;;;20.18;49.14
48872;BME280;36154;51.674;7.824;2023-01-16T05:48:46;98319.00;;;20.21;49.22
48872;BME280;36154;51.674;7.824;2023-01-16T05:51:16;98317.34;;;20.20;49.24
48872;BME280;36154;51.674;7.824;2023-01-16T05:53:42;98314.00;;;20.18;49.35
48872;BME280;36154;51.674;7.824;2023-01-16T05:56:10;98308.84;;;20.18;49.29
48872;BME280;36154;51.674;7.824;2023-01-16T05:58:39;98306.38;;;20.17;49.30
48872;BME280;36154;51.674;7.824;2023-01-16T06:01:05;98300.38;;;20.16;49.31
48872;BME280;36154;51.674;7.824;2023-01-16T06:03:31;98285.81;;;20.15;49.25
48872;BME280;36154;51.674;7.824;2023-01-16T06:05:57;98289.31;;;20.14;49.35
48872;BME280;36154;51.674;7.824;2023-01-16T06:08:25;98275.56;;;20.13;49.47
48872;BME280;36154;51.674;7.824;2023-01-16T06:10:51;98268.72;;;20.12;49.74
48872;BME280;36154;51.674;7.824;2023-01-16T06:13:17;98266.97;;;20.13;49.79
48872;BME280;36154;51.674;7.824;2023-01-16T06:15:44;98267.06;;;20.11;49.98
48872;BME280;36154;51.674;7.824;2023-01-16T06:18:10;98260.97;;;20.12;50.05
48872;BME280;36154;51.674;7.824;2023-01-16T06:20:36;98256.63;;;20.13;50.16
48872;BME280;36154;51.674;7.824;2023-01-16T06:23:02;98249.72;;;20.13;50.46
48872;BME280;36154;51.674;7.824;2023-01-16T06:25:28;98241.22;;;20.11;50.56
48872;BME280;36154;51.674;7.824;2023-01-16T06:27:54;98228.19;;;20.13;50.75
48872;BME280;36154;51.674;7.824;2023-01-16T06:30:20;98224.88;;;20.11;50.59
48872;BME280;36154;51.674;7.824;2023-01-16T06:32:49;98218.06;;;20.10;50.55
48872;BME280;36154;51.674;7.824;2023-01-16T06:35:16;98213.00;;;20.08;50.81
48872;BME280;36154;51.674;7.824;2023-01-16T06:37:42;98202.66;;;20.08;50.83
48872;BME280;36154;51.674;7.824;2023-01-16T06:40:08;98193.25;;;20.07;51.07
48872;BME280;36154;51.674;7.824;2023-01-16T06:42:35;98192.41;;;20.07;50.94
48872;BME280;36154;51.674;7.824;2023-01-16T06:45:04;98187.25;;;20.07;50.91
48872;BME280;36154;51.674;7.824;2023-01-16T06:47:30;98178.78;;;20.05;50.96
48872;BME280;36154;51.674;7.824;2023-01-16T06:49:56;98185.59;;;20.06;51.14
48872;BME280;36154;51.674;7.824;2023-01-16T06:52:22;98172.75;;;20.04;51.42
48872;BME280;36154;51.674;7.824;2023-01-16T06:54:48;98153.03;;;20.03;51.42
48872;BME280;36154;51.674;7.824;2023-01-16T06:57:14;98151.28;;;20.04;51.32
48872;BME280;36154;51.674;7.824;2023-01-16T06:59:40;98144.44;;;20.03;51.38
48872;BME280;36154;51.674;7.824;2023-01-16T07:02:07;98135.97;;;20.01;51.34
48872;BME280;36154;51.674;7.824;2023-01-16T07:04:33;98138.53;;;20.01;51.40
48872;BME280;36154;51.674;7.824;2023-01-16T07:07:03;98134.28;;;20.00;51.41
48872;BME280;36154;51.674;7.824;2023-01-16T07:09:28;98125.81;;;19.98;51.40
48872;BME280;36154;51.674;7.824;2023-01-16T07:11:54;98131.00;;;19.98;51.27
48872;BME280;36154;51.674;7.824;2023-01-16T07:14:20;98119.03;;;19.97;51.32
48872;BME280;36154;51.674;7.824;2023-01-16T07:17:05;98109.59;;;19.96;51.10
48872;BME280;36154;51.674;7.824;2023-01-16T07:19:49;98103.72;;;19.93;51.31
48872;BME280;36154;51.674;7.824;2023-01-16T07:22:34;98096.88;;;19.92;51.15
48872;BME280;36154;51.674;7.824;2023-01-16T07:25:01;98093.47;;;19.92;51.14
48872;BME280;36154;51.674;7.824;2023-01-16T07:27:30;98080.56;;;19.92;51.06
48872;BME280;36154;51.674;7.824;2023-01-16T07:29:56;98075.28;;;19.93;51.15
48872;BME280;36154;51.674;7.824;2023-01-16T07:32:23;98071.66;;;19.96;51.01
48872;BME280;36154;51.674;7.824;2023-01-16T07:34:48;98060.31;;;19.99;51.13
48872;BME280;36154;51.674;7.824;2023-01-16T07:37:17;98049.75;;;20.02;51.04
48872;BME280;36154;51.674;7.824;2023-01-16T07:39:43;98042.72;;;20.04;51.15
48872;BME280;36154;51.674;7.824;2023-01-16T07:42:09;98044.16;;;20.08;51.20
48872;BME280;36154;51.674;7.824;2023-01-16T07:44:35;98037.16;;;20.10;51.19
48872;BME280;36154;51.674;7.824;2023-01-16T07:47:01;98027.41;;;20.13;51.15
48872;BME280;36154;51.674;7.824;2023-01-16T07:49:30;98021.19;;;20.16;51.16
48872;BME280;36154;51.674;7.824;2023-01-16T07:52:05;98017.91;;;20.14;51.21
48872;BME280;36154;51.674;7.824;2023-01-16T07:54:40;98024.28;;;20.21;51.03
48872;BME280;36154;51.674;7.824;2023-01-16T07:57:12;98013.75;;;20.24;51.03
48872;BME280;36154;51.674;7.824;2023-01-16T08:02:40;97987.69;;;20.27;51.04
48872;BME280;36154;51.674;7.824;2023-01-16T08:05:07;97979.00;;;20.28;50.99
48872;BME280;36154;51.674;7.824;2023-01-16T08:07:45;97971.13;;;20.30;50.99
48872;BME280;36154;51.674;7.824;2023-01-16T08:10:21;97966.78;;;20.30;50.83
48872;BME280;36154;51.674;7.824;2023-01-16T08:12:47;97951.28;;;20.30;50.74
48872;BME280;36154;51.674;7.824;2023-01-16T08:15:19;97952.91;;;20.31;50.71
48872;BME280;36154;51.674;7.824;2023-01-16T08:17:58;97931.41;;;20.31;50.68
48872;BME280;36154;51.674;7.824;2023-01-16T08:20:27;97932.22;;;20.31;50.74
48872;BME280;36154;51.674;7.824;2023-01-16T08:22:56;97930.59;;;20.30;50.59
48872;BME280;36154;51.674;7.824;2023-01-16T08:25:25;97921.06;;;20.31;50.63
48872;BME280;36154;51.674;7.824;2023-01-16T08:27:51;97922.84;;;20.30;50.57
48872;BME280;36154;51.674;7.824;2023-01-16T08:30:18;97923.75;;;20.29;50.62
48872;BME280;36154;51.674;7.824;2023-01-16T08:32:44;97921.16;;;20.29;50.55
48872;BME280;36154;51.674;7.824;2023-01-16T08:35:15;97916.09;;;20.28;50.56
48872;BME280;36154;51.674;7.824;2023-01-16T08:37:48;97913.63;;;20.26;50.57
48872;BME280;36154;51.674;7.824;2023-01-16T08:40:14;97902.47;;;20.26;50.40
48872;BME280;36154;51.674;7.824;2023-01-16T08:42:40;97893.91;;;20.25;50.38
48872;BME280;36154;51.674;7.824;2023-01-16T08:45:30;97862.19;;;20.23;50.29
48872;BME280;36154;51.674;7.824;2023-01-16T08:48:21;97852.06;;;20.20;50.49
48872;BME280;36154;51.674;7.824;2023-01-16T08:51:20;97844.41;;;20.19;50.39
48872;BME280;36154;51.674;7.824;2023-01-16T08:53:56;97838.38;;;20.18;50.29
48872;BME280;36154;51.674;7.824;2023-01-16T08:56:54;97841.94;;;20.17;50.14
48872;BME280;36154;51.674;7.824;2023-01-16T08:59:30;97843.81;;;20.15;50.26
48872;BME280;36154;51.674;7.824;2023-01-16T09:02:31;97827.56;;;20.13;50.19
48872;BME280;36154;51.674;7.824;2023-01-16T09:05:23;97820.75;;;20.12;50.15
48872;BME280;36154;51.674;7.824;2023-01-16T09:08:19;97825.22;;;20.10;50.11
48872;BME280;36154;51.674;7.824;2023-01-16T09:10:59;97812.50;;;20.07;50.14
48872;BME280;36154;51.674;7.824;2023-01-16T09:14:01;97801.22;;;20.08;50.20
48872;BME280;36154;51.674;7.824;2023-01-16T09:16:29;97792.75;;;20.06;50.26
48872;BME280;36154;51.674;7.824;2023-01-16T09:19:24;97790.19;;;20.06;50.06
48872;BME280;36154;51.674;7.824;2023-01-16T09:21:53;97784.31;;;20.04;50.34
48872;BME280;36154;51.674;7.824;2023-01-16T09:24:24;97779.13;;;20.04;50.24
48872;BME280;36154;51.674;7.824;2023-01-16T09:27:03;97772.31;;;20.03;50.23
48872;BME280;36154;51.674;7.824;2023-01-16T09:29:30;97761.97;;;20.03;50.00
48872;BME280;36154;51.674;7.824;2023-01-16T09:32:02;97763.75;;;20.02;50.13
48872;BME280;36154;51.674;7.824;2023-01-16T09:34:35;97753.50;;;20.01;50.00
48872;BME280;36154;51.674;7.824;2023-01-16T09:37:01;97758.69;;;20.01;49.93
48872;BME280;36154;51.674;7.824;2023-01-16T09:39:27;97746.69;;;20.00;50.09
48872;BME280;36154;51.674;7.824;2023-01-16T09:45:06;97745.97;;;19.98;50.07
48872;BME280;36154;51.674;7.824;2023-01-16T09:47:41;97728.84;;;19.97;49.98
48872;BME280;36154;51.674;7.824;2023-01-16T09:53:02;97714.28;;;19.96;50.04
48872;BME280;36154;51.674;7.824;2023-01-16T09:55:53;97714.28;;;19.96;49.93
48872;BME280;36154;51.674;7.824;2023-01-16T09:58:46;97708.41;;;19.93;50.01
48872;BME280;36154;51.674;7.824;2023-01-16T10:01:19;97698.16;;;19.92;49.98
48872;BME280;36154;51.674;7.824;2023-01-16T10:03:49;97701.56;;;19.92;49.96
48872;BME280;36154;51.674;7.824;2023-01-16T10:06:16;97697.34;;;19.91;50.02
48872;BME280;36154;51.674;7.824;2023-01-16T10:12:04;97673.38;;;19.89;50.04
48872;BME280;36154;51.674;7.824;2023-01-16T10:22:55;97661.56;;;19.98;49.85
48872;BME280;36154;51.674;7.824;2023-01-16T10:25:33;97646.66;;;20.02;49.99
48872;BME280;36154;51.674;7.824;2023-01-16T10:28:48;97641.25;;;20.05;50.17
48872;BME280;36154;51.674;7.824;2023-01-16T10:31:39;97641.84;;;20.08;50.00
48872;BME280;36154;51.674;7.824;2023-01-16T10:41:10;97618.00;;;20.16;50.00
48872;BME280;36154;51.674;7.824;2023-01-16T10:54:07;97627.53;;;20.27;49.85
48872;BME280;36154;51.674;7.824;2023-01-16T10:56:55;97618.72;;;20.29;49.78
48872;BME280;36154;51.674;7.824;2023-01-16T10:59:56;97607.44;;;20.30;49.83
48872;BME280;36154;51.674;7.824;2023-01-16T11:02:41;97608.13;;;20.33;49.67
48872;BME280;36154;51.674;7.824;2023-01-16T11:09:19;97592.41;;;20.36;49.77
48872;BME280;36154;51.674;7.824;2023-01-16T11:11:55;97599.22;;;20.37;49.69
48872;BME280;36154;51.674;7.824;2023-01-16T11:14:46;97591.31;;;20.38;49.69
48872;BME280;36154;51.674;7.824;2023-01-16T11:17:52;97580.88;;;20.40;49.70
48872;BME280;36154;51.674;7.824;2023-01-16T11:20:44;97558.44;;;20.40;49.57
48872;BME280;36154;51.674;7.824;2023-01-16T11:23:21;97554.09;;;20.41;49.55
48872;BME280;36154;51.674;7.824;2023-01-16T11:25:53;97543.63;;;20.42;49.57
48872;BME280;36154;51.674;7.824;2023-01-16T11:28:29;97537.38;;;20.45;49.40
48872;BME280;36154;51.674;7.824;2023-01-16T11:31:56;97538.22;;;20.45;49.41
48872;BME280;36154;51.674;7.824;2023-01-16T11:37:44;97517.44;;;20.47;49.42
48872;BME280;36154;51.674;7.824;2023-01-16T11:40:42;97508.72;;;20.48;49.26
48872;BME280;36154;51.674;7.824;2023-01-16T11:43:37;97506.84;;;20.50;49.22
48872;BME280;36154;51.674;7.824;2023-01-16T11:46:38;97503.31;;;20.51;49.24
48872;BME280;36154;51.674;7.824;2023-01-16T11:49:24;97505.78;;;20.53;49.38
48872;BME280;36154;51.674;7.824;2023-01-16T11:52:11;97475.44;;;20.55;49.12
48872;BME280;36154;51.674;7.824;2023-01-16T11:55:05;97478.88;;;20.55;49.24
48872;BME280;36154;51.674;7.824;2023-01-16T12:04:13;97458.03;;;20.57;49.15
48872;BME280;36154;51.674;7.824;2023-01-16T12:07:26;97452.75;;;20.58;49.17
48872;BME280;36154;51.674;7.824;2023-01-16T12:13:17;97426.66;;;20.61;49.12
48872;BME280;36154;51.674;7.824;2023-01-16T12:19:37;97417.97;;;20.62;49.02
48872;BME280;36154;51.674;7.824;2023-01-16T12:32:34;97383.00;;;20.68;49.08
48872;BME280;36154;51.674;7.824;2023-01-16T12:35:58;97363.16;;;20.68;49.08
48872;BME280;36154;51.674;7.824;2023-01-16T12:39:07;97360.56;;;20.68;49.02
48872;BME280;36154;51.674;7.824;2023-01-16T12:46:00;97357.03;;;20.70;48.86
48872;BME280;36154;51.674;7.824;2023-01-16T12:58:09;97308.75;;;20.80;48.62
48872;BME280;36154;51.674;7.824;2023-01-16T13:04:27;97296.22;;;21.06;47.99
48872;BME280;36154;51.674;7.824;2023-01-16T13:07:05;97290.66;;;21.41;47.51
48872;BME280;36154;51.674;7.824;2023-01-16T13:16:30;97278.38;;;22.33;45.16
48872;BME280;36154;51.674;7.824;2023-01-16T13:22:20;97266.38;;;22.12;45.40
48872;BME280;36154;51.674;7.824;2023-01-16T13:28:39;97262.38;;;21.69;46.17
48872;BME280;36154;51.674;7.824;2023-01-16T13:31:36;97263.69;;;21.54;46.72
48872;BME280;36154;51.674;7.824;2023-01-16T13:34:28;97255.09;;;21.44;46.68
48872;BME280;36154;51.674;7.824;2023-01-16T13:38:25;97241.44;;;21.32;47.07
48872;BME280;36154;51.674;7.824;2023-01-16T13:50:34;97227.84;;;20.99;47.47
48872;BME280;36154;51.674;7.824;2023-01-16T13:53:21;97230.94;;;20.93;47.59
48872;BME280;36154;51.674;7.824;2023-01-16T13:56:26;97226.13;;;20.88;47.73
48872;BME280;36154;51.674;7.824;2023-01-16T13:59:29;97224.91;;;20.82;47.69
48872;BME280;36154;51.674;7.824;2023-01-16T14:02:01;97211.41;;;20.79;47.83
48872;BME280;36154;51.674;7.824;2023-01-16T14:04:42;97211.66;;;20.76;47.84
48872;BME280;36154;51.674;7.824;2023-01-16T14:08:46;97211.00;;;20.74;47.94
48872;BME280;36154;51.674;7.824;2023-01-16T14:11:17;97186.31;;;20.70;47.94
48872;BME280;36154;51.674;7.824;2023-01-16T14:17:25;97161.94;;;20.62;48.17
48872;BME280;36154;51.674;7.824;2023-01-16T14:20:43;97161.25;;;20.60;48.16
48872;BME280;36154;51.674;7.824;2023-01-16T14:26:59;97156.59;;;20.54;48.30
48872;BME280;36154;51.674;7.824;2023-01-16T14:33:03;97144.84;;;20.50;48.42
48872;BME280;36154;51.674;7.824;2023-01-16T14:35:47;97144.03;;;20.49;48.38
48872;BME280;36154;51.674;7.824;2023-01-16T14:41:05;97131.22;;;20.48;48.36
48872;BME280;36154;51.674;7.824;2023-01-16T14:44:16;97135.59;;;20.47;48.34
48872;BME280;36154;51.674;7.824;2023-01-16T14:47:33;97125.34;;;20.46;48.61
48872;BME280;36154;51.674;7.824;2023-01-16T14:50:17;97123.03;;;20.43;48.53
48872;BME280;36154;51.674;7.824;2023-01-16T14:53:12;97117.03;;;20.42;48.50
48872;BME280;36154;51.674;7.824;2023-01-16T14:56:01;97111.88;;;20.42;48.71
48872;BME280;36154;51.674;7.824;2023-01-16T14:59:13;97119.38;;;20.45;48.79
48872;BME280;36154;51.674;7.824;2023-01-16T15:01:46;97109.75;;;20.47;48.89
48872;BME280;36154;51.674;7.824;2023-01-16T15:04:51;97110.53;;;20.48;48.93
48872;BME280;36154;51.674;7.824;2023-01-16T15:07:58;97108.50;;;20.52;48.97
48872;BME280;36154;51.674;7.824;2023-01-16T15:10:51;97098.03;;;20.53;48.99
48872;BME280;36154;51.674;7.824;2023-01-16T15:13:46;97095.19;;;20.56;49.01
48872;BME280;36154;51.674;7.824;2023-01-16T15:17:14;97093.28;;;20.58;48.85
48872;BME280;36154;51.674;7.824;2023-01-16T15:27:54;97088.53;;;20.63;48.95
48872;BME280;36154;51.674;7.824;2023-01-16T15:30:42;97074.69;;;20.64;48.95
48872;BME280;36154;51.674;7.824;2023-01-16T15:40:28;97070.06;;;20.68;48.96
48872;BME280;36154;51.674;7.824;2023-01-16T15:43:20;97057.00;;;20.70;48.89
48872;BME280;36154;51.674;7.824;2023-01-16T15:52:26;97059.44;;;20.71;48.79
48872;BME280;36154;51.674;7.824;2023-01-16T15:55:17;97057.81;;;20.70;48.94
48872;BME280;36154;51.674;7.824;2023-01-16T15:58:01;97048.28;;;20.71;48.80
48872;BME280;36154;51.674;7.824;2023-01-16T16:00:38;97037.94;;;20.71;48.68
48872;BME280;36154;51.674;7.824;2023-01-16T16:03:39;97036.31;;;20.70;48.64
48872;BME280;36154;51.674;7.824;2023-01-16T16:06:51;97032.09;;;20.68;48.52
48872;BME280;36154;51.674;7.824;2023-01-16T16:09:36;97030.44;;;20.67;48.48
48872;BME280;36154;51.674;7.824;2023-01-16T16:12:08;97018.47;;;20.66;48.59
48872;BME280;36154;51.674;7.824;2023-01-16T16:14:42;97025.41;;;20.66;48.60
48872;BME280;36154;51.674;7.824;2023-01-16T16:17:31;97022.03;;;20.65;48.53
48872;BME280;36154;51.674;7.824;2023-01-16T16:21:12;97021.31;;;20.63;48.50
48872;BME280;36154;51.674;7.824;2023-01-16T16:23:43;97011.13;;;20.62;48.61
48872;BME280;36154;51.674;7.824;2023-01-16T16:26:18;97009.63;;;20.59;48.81
48872;BME280;36154;51.674;7.824;2023-01-16T16:29:04;97009.63;;;20.59;48.71
48872;BME280;36154;51.674;7.824;2023-01-16T16:31:39;96996.00;;;20.57;48.71
48872;BME280;36154;51.674;7.824;2023-01-16T16:34:25;96992.75;;;20.55;49.17
48872;BME280;36154;51.674;7.824;2023-01-16T16:37:05;96997.91;;;20.55;49.40
48872;BME280;36154;51.674;7.824;2023-01-16T16:40:14;96988.63;;;20.53;49.90
48872;BME280;36154;51.674;7.824;2023-01-16T16:43:04;96991.34;;;20.51;49.98
48872;BME280;36154;51.674;7.824;2023-01-16T16:45:48;96990.69;;;20.49;50.15
48872;BME280;36154;51.674;7.824;2023-01-16T16:48:37;96989.88;;;20.48;50.37
48872;BME280;36154;51.674;7.824;2023-01-16T16:51:33;96990.00;;;20.47;50.47
48872;BME280;36154;51.674;7.824;2023-01-16T16:54:26;96978.94;;;20.45;50.39
48872;BME280;36154;51.674;7.824;2023-01-16T16:57:38;96982.59;;;20.42;50.40